Time,TemperatureF,DewpointF,PressureIn,WindDirection,WindDirectionDegrees,WindSpeedMPH,WindSpeedGustMPH,Humidity,HourlyPrecipIn,Conditions,Clouds,dailyrainin,SoftwareType,DateUTC
2013-02-07 00:12:00,34.8,27.0,30.19,ESE,121,0.0,0.0,74,0.00,,,0.00,weatherlink.com 1.10,2013-02-07 05:12:00,
2013-02-07 00:27:00,34.5,27.0,30.19,ESE,121,0.0,0.0,74,0.00,,,0.00,weatherlink.com 1.10,2013-02-07 05:27:00,
2013-02-07 00:42:00,34.3,27.0,30.20,ESE,121,0.0,0.0,75,0.00,,,0.00,weatherlink.com 1.10,2013-02-07 05:42:00,
2013-02-07 00:57:00,34.6,27.0,30.20,ESE,121,0.0,0.0,75,0.00,,,0.00,weatherlink.com 1.10,2013-02-07 05:57:00,
2013-02-07 01:12:00,34.7,28.0,30.20,ESE,121,0.0,0.0,77,0.00,,,0.00,weatherlink.com 1.10,2013-02-07 06:12:00,
2013-02-07 01:27:00,35.3,28.0,30.21,ESE,121,0.0,0.0,75,0.00,,,0.00,weatherlink.com 1.10,2013-02-07 06:27:00,
2013-02-07 01:42:00,35.5,28.0,30.20,ESE,121,0.0,0.0,73,0.00,,,0.00,weatherlink.com 1.10,2013-02-07 06:42:00,
2013-02-07 01:57:00,34.8,27.0,30.21,ESE,121,0.0,0.0,74,0.00,,,0.00,weatherlink.com 1.10,2013-02-07 06:57:00,
2013-02-07 02:12:00,34.6,27.0,30.21,ENE,59,0.0,2.0,75,0.00,,,0.00,weatherlink.com 1.10,2013-02-07 07:12:00,
2013-02-07 02:27:00,34.2,27.0,30.22,NE,38,0.0,0.0,76,0.00,,,0.00,weatherlink.com 1.10,2013-02-07 07:27:00,
2013-02-07 02:43:00,35.3,28.0,30.22,NE,38,0.0,0.0,74,0.00,,,0.00,weatherlink.com 1.10,2013-02-07 07:43:00,
2013-02-07 02:58:00,35.1,27.0,30.22,NE,38,0.0,0.0,73,0.00,,,0.00,weatherlink.com 1.10,2013-02-07 07:58:00,
2013-02-07 03:13:00,34.6,27.0,30.21,NE,38,0.0,0.0,75,0.00,,,0.00,weatherlink.com 1.10,2013-02-07 08:13:00,
2013-02-07 03:28:00,34.5,27.0,30.21,East,82,0.0,0.0,75,0.00,,,0.00,weatherlink.com 1.10,2013-02-07 08:28:00,
2013-02-07 03:43:00,34.6,26.0,30.22,SE,140,0.0,0.0,72,0.00,,,0.00,weatherlink.com 1.10,2013-02-07 08:43:00,
2013-02-07 03:58:00,35.5,27.0,30.22,SE,146,0.0,2.0,72,0.00,,,0.00,weatherlink.com 1.10,2013-02-07 08:58:00,
2013-02-07 04:13:00,36.1,27.0,30.23,North,360,0.0,2.0,69,0.00,,,0.00,weatherlink.com 1.10,2013-02-07 09:13:00,
2013-02-07 04:28:00,39.3,26.0,30.24,NNW,331,1.0,3.0,60,0.00,,,0.00,weatherlink.com 1.10,2013-02-07 09:28:00,
2013-02-07 04:43:00,40.7,25.0,30.24,NNW,342,0.0,6.0,55,0.00,,,0.00,weatherlink.com 1.10,2013-02-07 09:43:00,
2013-02-07 04:58:00,40.4,25.0,30.24,NNE,24,1.0,4.0,55,0.00,,,0.00,weatherlink.com 1.10,2013-02-07 09:58:00,
2013-02-07 05:13:00,39.9,25.0,30.24,ENE,76,0.0,3.0,56,0.00,,,0.00,weatherlink.com 1.10,2013-02-07 10:13:00,
2013-02-07 05:28:00,40.0,25.0,30.24,NNW,334,0.0,4.0,55,0.00,,,0.00,weatherlink.com 1.10,2013-02-07 10:28:00,
2013-02-07 05:43:00,40.0,25.0,30.24,North,360,1.0,4.0,55,0.00,,,0.00,weatherlink.com 1.10,2013-02-07 10:43:00,
2013-02-07 05:58:00,40.0,25.0,30.24,North,11,0.0,2.0,55,0.00,,,0.00,weatherlink.com 1.10,2013-02-07 10:58:00,
2013-02-07 06:13:00,40.0,25.0,30.24,NNE,26,0.0,2.0,55,0.00,,,0.00,weatherlink.com 1.10,2013-02-07 11:13:00,
2013-02-07 06:28:00,39.5,25.0,30.23,NNE,26,0.0,1.0,57,0.00,,,0.00,weatherlink.com 1.10,2013-02-07 11:28:00,
2013-02-07 06:43:00,38.5,26.0,30.23,NNE,26,0.0,0.0,61,0.00,,,0.00,weatherlink.com 1.10,2013-02-07 11:43:00,
2013-02-07 06:58:00,37.3,27.0,30.23,NNE,26,0.0,0.0,67,0.00,,,0.00,weatherlink.com 1.10,2013-02-07 11:58:00,
2013-02-07 07:13:00,36.6,27.0,30.24,NNE,26,0.0,0.0,68,0.00,,,0.00,weatherlink.com 1.10,2013-02-07 12:13:00,
2013-02-07 07:28:00,37.0,27.0,30.24,NNE,26,0.0,0.0,68,0.00,,,0.00,weatherlink.com 1.10,2013-02-07 12:28:00,
2013-02-07 07:43:00,37.2,27.0,30.24,NNE,26,0.0,0.0,68,0.00,,,0.00,weatherlink.com 1.10,2013-02-07 12:43:00,
2013-02-07 07:58:00,37.6,26.0,30.24,ENE,58,0.0,0.0,63,0.00,,,0.00,weatherlink.com 1.10,2013-02-07 12:58:00,
2013-02-07 08:13:00,37.9,30.0,30.26,NE,55,0.0,0.0,72,0.00,,,0.00,weatherlink.com 1.10,2013-02-07 13:13:00,
2013-02-07 08:28:00,38.9,29.0,30.26,SSE,160,0.0,0.0,68,0.00,,,0.00,weatherlink.com 1.10,2013-02-07 13:28:00,
2013-02-07 08:43:00,40.0,29.0,30.25,East,94,0.0,0.0,66,0.00,,,0.00,weatherlink.com 1.10,2013-02-07 13:43:00,
2013-02-07 08:58:00,40.9,28.0,30.25,NE,51,0.0,1.0,60,0.00,,,0.00,weatherlink.com 1.10,2013-02-07 13:58:00,
2013-02-07 09:13:00,42.3,30.0,30.25,East,90,1.0,5.0,63,0.00,,,0.00,weatherlink.com 1.10,2013-02-07 14:13:00,
2013-02-07 09:28:00,42.9,31.0,30.25,ESE,117,3.0,8.0,64,0.00,,,0.00,weatherlink.com 1.10,2013-02-07 14:28:00,
2013-02-07 09:43:00,43.4,31.0,30.25,NE,56,0.0,5.0,63,0.00,,,0.00,weatherlink.com 1.10,2013-02-07 14:43:00,
2013-02-07 09:58:00,43.7,31.0,30.24,East,82,1.0,4.0,62,0.00,,,0.00,weatherlink.com 1.10,2013-02-07 14:58:00,
2013-02-07 10:13:00,44.0,32.0,30.24,NNE,31,2.0,5.0,64,0.00,,,0.00,weatherlink.com 1.10,2013-02-07 15:13:00,
2013-02-07 10:28:00,44.5,33.0,30.25,ESE,109,2.0,4.0,65,0.00,,,0.00,weatherlink.com 1.10,2013-02-07 15:28:00,
2013-02-07 10:43:00,44.8,31.0,30.24,NE,36,2.0,4.0,60,0.00,,,0.00,weatherlink.com 1.10,2013-02-07 15:43:00,
2013-02-07 10:58:00,45.1,33.0,30.23,ENE,62,2.0,5.0,63,0.00,,,0.00,weatherlink.com 1.10,2013-02-07 15:58:00,
2013-02-07 11:13:00,44.4,34.0,30.22,East,86,2.0,10.0,66,0.00,,,0.00,weatherlink.com 1.10,2013-02-07 16:13:00,
2013-02-07 11:28:00,44.3,34.0,30.22,ENE,74,3.0,7.0,66,0.00,,,0.00,weatherlink.com 1.10,2013-02-07 16:28:00,
2013-02-07 11:43:00,44.5,34.0,30.22,East,88,3.0,7.0,66,0.00,,,0.00,weatherlink.com 1.10,2013-02-07 16:43:00,
2013-02-07 11:58:00,44.5,35.0,30.21,ENE,72,7.0,7.0,69,0.00,,,0.00,weatherlink.com 1.10,2013-02-07 16:58:00,
2013-02-07 12:13:00,44.0,35.0,30.20,ENE,69,4.0,7.0,70,0.00,,,0.00,weatherlink.com 1.10,2013-02-07 17:13:00,
2013-02-07 12:28:00,43.6,35.0,30.19,ENE,69,2.0,9.0,73,0.00,,,0.00,weatherlink.com 1.10,2013-02-07 17:28:00,
2013-02-07 12:43:00,43.2,37.0,30.18,NNE,15,2.0,3.0,78,0.00,,,0.00,weatherlink.com 1.10,2013-02-07 17:43:00,
2013-02-07 12:58:00,43.4,38.0,30.18,North,11,2.0,4.0,80,0.00,,,0.00,weatherlink.com 1.10,2013-02-07 17:58:00,
2013-02-07 13:13:00,42.7,37.0,30.17,North,10,4.0,5.0,79,0.00,,,0.00,weatherlink.com 1.10,2013-02-07 18:13:00,
2013-02-07 13:28:00,42.4,37.0,30.17,North,360,3.0,3.0,80,0.00,,,0.00,weatherlink.com 1.10,2013-02-07 18:28:00,
2013-02-07 13:43:00,42.1,37.0,30.17,NE,53,1.0,3.0,82,0.01,,,0.01,weatherlink.com 1.10,2013-02-07 18:43:00,
2013-02-07 13:58:00,41.8,37.0,30.16,North,351,0.0,3.0,84,0.02,,,0.02,weatherlink.com 1.10,2013-02-07 18:58:00,
2013-02-07 14:14:00,41.5,37.0,30.16,NNE,25,1.0,2.0,85,0.02,,,0.02,weatherlink.com 1.10,2013-02-07 19:14:00,
2013-02-07 14:29:00,41.3,38.0,30.16,NNE,13,1.0,3.0,87,0.03,,,0.03,weatherlink.com 1.10,2013-02-07 19:29:00,
2013-02-07 14:44:00,41.1,38.0,30.14,NNW,345,2.0,4.0,89,0.03,,,0.04,weatherlink.com 1.10,2013-02-07 19:44:00,
2013-02-07 14:59:00,41.0,38.0,30.14,NE,52,1.0,6.0,89,0.04,,,0.06,weatherlink.com 1.10,2013-02-07 19:59:00,
2013-02-07 15:14:00,40.9,38.0,30.13,North,360,2.0,3.0,90,0.05,,,0.08,weatherlink.com 1.10,2013-02-07 20:14:00,
2013-02-07 15:29:00,40.9,38.0,30.14,NNW,338,0.0,4.0,90,0.07,,,0.10,weatherlink.com 1.10,2013-02-07 20:29:00,
2013-02-07 15:44:00,40.9,38.0,30.13,NNE,13,1.0,4.0,90,0.07,,,0.11,weatherlink.com 1.10,2013-02-07 20:44:00,
2013-02-07 15:59:00,40.9,38.0,30.13,NNE,18,0.0,3.0,90,0.06,,,0.12,weatherlink.com 1.10,2013-02-07 20:59:00,
2013-02-07 16:14:00,40.8,38.0,30.12,NNE,15,0.0,4.0,90,0.06,,,0.14,weatherlink.com 1.10,2013-02-07 21:14:00,
2013-02-07 16:29:00,40.7,38.0,30.11,North,5,3.0,4.0,91,0.05,,,0.15,weatherlink.com 1.10,2013-02-07 21:29:00,
2013-02-07 16:44:00,40.6,38.0,30.11,NNE,29,1.0,4.0,91,0.06,,,0.17,weatherlink.com 1.10,2013-02-07 21:44:00,
2013-02-07 16:59:00,40.6,38.0,30.10,NNW,347,2.0,5.0,91,0.07,,,0.20,weatherlink.com 1.10,2013-02-07 21:59:00,
2013-02-07 17:14:00,40.4,38.0,30.09,NNE,25,2.0,7.0,90,0.08,,,0.22,weatherlink.com 1.10,2013-02-07 22:14:00,
2013-02-07 17:29:00,40.2,38.0,30.08,North,11,6.0,8.0,91,0.08,,,0.24,weatherlink.com 1.10,2013-02-07 22:29:00,
2013-02-07 17:44:00,40.1,38.0,30.08,NNW,344,3.0,7.0,91,0.09,,,0.26,weatherlink.com 1.10,2013-02-07 22:44:00,
2013-02-07 17:59:00,40.0,38.0,30.08,NE,55,5.0,7.0,91,0.08,,,0.28,weatherlink.com 1.10,2013-02-07 22:59:00,
2013-02-07 18:14:00,40.0,38.0,30.07,NE,38,2.0,7.0,91,0.08,,,0.30,weatherlink.com 1.10,2013-02-07 23:14:00,
2013-02-07 18:29:00,40.0,38.0,30.07,NNE,20,1.0,5.0,91,0.08,,,0.32,weatherlink.com 1.10,2013-02-07 23:29:00,
2013-02-07 18:44:00,39.9,38.0,30.07,NNE,17,5.0,6.0,91,0.08,,,0.34,weatherlink.com 1.10,2013-02-07 23:44:00,
2013-02-07 18:59:00,39.9,38.0,30.07,NE,51,0.0,2.0,91,0.07,,,0.35,weatherlink.com 1.10,2013-02-07 23:59:00,
2013-02-07 19:14:00,39.8,37.0,30.08,ENE,71,0.0,2.0,91,0.08,,,0.38,weatherlink.com 1.10,2013-02-08 00:14:00,
2013-02-07 19:29:00,39.7,37.0,30.08,ENE,70,0.0,0.0,91,0.08,,,0.40,weatherlink.com 1.10,2013-02-08 00:29:00,
2013-02-07 19:44:00,39.8,38.0,30.08,NNE,32,0.0,1.0,92,0.10,,,0.44,weatherlink.com 1.10,2013-02-08 00:44:00,
2013-02-07 19:59:00,39.8,38.0,30.07,ENE,69,0.0,2.0,92,0.11,,,0.47,weatherlink.com 1.10,2013-02-08 00:59:00,
2013-02-07 20:14:00,39.8,38.0,30.07,NNE,19,3.0,3.0,92,0.13,,,0.51,weatherlink.com 1.10,2013-02-08 01:14:00,
2013-02-07 20:29:00,40.0,38.0,30.07,NE,44,0.0,3.0,92,0.14,,,0.55,weatherlink.com 1.10,2013-02-08 01:29:00,
2013-02-07 20:44:00,40.2,38.0,30.07,NE,50,0.0,3.0,92,0.13,,,0.58,weatherlink.com 1.10,2013-02-08 01:44:00,
2013-02-07 20:59:00,40.3,38.0,30.06,North,360,0.0,3.0,92,0.13,,,0.61,weatherlink.com 1.10,2013-02-08 01:59:00,
2013-02-07 21:14:00,40.4,38.0,30.06,NE,55,0.0,5.0,92,0.12,,,0.63,weatherlink.com 1.10,2013-02-08 02:14:00,
2013-02-07 21:29:00,40.2,38.0,30.06,NE,52,2.0,4.0,92,0.09,,,0.64,weatherlink.com 1.10,2013-02-08 02:29:00,
2013-02-07 21:44:00,40.2,38.0,30.06,NE,34,4.0,4.0,91,0.08,,,0.66,weatherlink.com 1.10,2013-02-08 02:44:00,
2013-02-07 21:59:00,40.2,38.0,30.05,East,83,3.0,6.0,91,0.06,,,0.67,weatherlink.com 1.10,2013-02-08 02:59:00,
2013-02-07 22:14:00,40.1,38.0,30.04,North,5,2.0,4.0,91,0.04,,,0.68,weatherlink.com 1.10,2013-02-08 03:14:00,
2013-02-07 22:29:00,40.2,38.0,30.03,NNE,22,1.0,5.0,91,0.04,,,0.68,weatherlink.com 1.10,2013-02-08 03:29:00,
2013-02-07 22:44:00,40.0,38.0,30.03,NW,313,0.0,4.0,92,0.02,,,0.68,weatherlink.com 1.10,2013-02-08 03:44:00,
2013-02-07 22:59:00,40.1,38.0,30.02,NNW,329,0.0,5.0,91,0.01,,,0.68,weatherlink.com 1.10,2013-02-08 03:59:00,
2013-02-07 23:14:00,40.1,38.0,30.03,NNE,21,0.0,4.0,91,0.00,,,0.68,weatherlink.com 1.10,2013-02-08 04:14:00,
2013-02-07 23:29:00,40.0,38.0,30.02,NW,316,2.0,5.0,91,0.00,,,0.68,weatherlink.com 1.10,2013-02-08 04:29:00,
2013-02-07 23:44:00,39.8,37.0,30.01,NE,49,1.0,5.0,91,0.00,,,0.68,weatherlink.com 1.10,2013-02-08 04:44:00,
2013-02-07 23:59:00,39.6,37.0,30.01,NW,313,2.0,5.0,91,0.00,,,0.68,weatherlink.com 1.10,2013-02-08 04:59:00,